Time;durP1;ratioP1;P1;durP2;ratioP2;P2;SDS_P1;SDS_P2;PMS_P1;PMS_P2;Temp;Humidity;BMP_temperature;BMP_pressure;BME280_temperature;BME280_humidity;BME280_pressure;Samples;Min_cycle;Max_cycle;Signal;HPM_P1;HPM_P2
2022/10/28 00:07:54;;;;;;;7.68;0.98;;;9.60;99.90;;;;;;21066643;28;20036;-50
2022/10/28 00:17:57;;;;;;;6.28;1.05;;;9.60;99.90;;;;;;21062748;28;20036;-52
2022/10/28 00:27:59;;;;;;;2.72;0.63;;;9.40;99.90;;;;;;21056800;28;20423;-50
2022/10/28 00:38:01;;;;;;;1.67;0.50;;;9.30;99.90;;;;;;21073420;28;20094;-66
2022/10/28 00:48:05;;;;;;;2.38;0.50;;;9.30;99.90;;;;;;21055733;28;20089;-68
2022/10/28 00:58:09;;;;;;;3.45;0.20;;;9.30;99.90;;;;;;21054494;28;20442;-54
2022/10/28 01:08:12;;;;;;;3.83;0.55;;;9.30;99.90;;;;;;21057636;28;20435;-52
2022/10/28 01:18:42;;;;;;;0.90;0.20;;;9.30;99.90;;;;;;21057703;28;20052;-53
2022/10/28 01:29:12;;;;;;;2.42;0.22;;;9.60;99.90;;;;;;21054754;28;20093;-51
2022/10/28 01:39:27;;;;;;;8.93;0.20;;;9.60;99.90;;;;;;21056177;28;20043;-54
2022/10/28 01:49:47;;;;;;;4.00;0.40;;;9.50;99.90;;;;;;21051616;28;20055;-56
2022/10/28 01:59:50;;;;;;;3.08;0.30;;;9.60;99.90;;;;;;21051637;28;20044;-53
2022/10/28 02:10:02;;;;;;;1.98;0.20;;;9.50;99.90;;;;;;21050516;28;20500;-67
2022/10/28 02:20:37;;;;;;;5.05;0.30;;;9.40;99.90;;;;;;21063404;28;20032;-67
2022/10/28 02:30:52;;;;;;;8.63;0.43;;;9.40;99.90;;;;;;20826191;28;20119;-67
2022/10/28 02:41:01;;;;;;;3.90;0.47;;;9.60;99.90;;;;;;20812334;28;20099;-67
2022/10/28 02:51:26;;;;;;;1.95;0.50;;;9.70;99.90;;;;;;20824482;28;20088;-67
2022/10/28 03:01:29;;;;;;;3.70;0.55;;;9.50;99.90;;;;;;20894628;28;20053;-52
2022/10/28 03:11:32;;;;;;;2.70;0.60;;;9.40;99.90;;;;;;20984343;28;20085;-53
2022/10/28 03:21:35;;;;;;;1.52;0.50;;;9.30;99.90;;;;;;20962553;28;20121;-50
2022/10/28 03:31:37;;;;;;;3.17;0.32;;;9.30;99.90;;;;;;20973998;28;20082;-51
2022/10/28 03:41:40;;;;;;;1.73;0.25;;;9.50;99.90;;;;;;20977894;28;20082;-56
2022/10/28 03:51:42;;;;;;;4.68;0.40;;;9.40;99.90;;;;;;20988844;28;20157;-66
2022/10/28 04:01:44;;;;;;;5.90;0.50;;;9.30;99.90;;;;;;20992700;28;20343;-52
2022/10/28 04:11:48;;;;;;;2.40;0.30;;;9.40;99.90;;;;;;20991710;28;20086;-54
2022/10/28 04:21:51;;;;;;;4.55;0.40;;;9.70;99.90;;;;;;20990641;28;20032;-49
2022/10/28 04:31:54;;;;;;;2.38;0.40;;;9.70;99.90;;;;;;20987105;28;20105;-66
2022/10/28 04:41:56;;;;;;;1.83;0.30;;;9.40;99.90;;;;;;20992527;28;20041;-53
2022/10/28 04:51:58;;;;;;;2.28;0.30;;;9.30;99.90;;;;;;20992240;28;20400;-57
2022/10/28 05:02:01;;;;;;;0.57;0.20;;;9.50;99.90;;;;;;20971103;28;20036;-53
2022/10/28 05:12:04;;;;;;;1.33;0.30;;;9.50;99.90;;;;;;20988079;28;20041;-51
2022/10/28 05:22:07;;;;;;;3.78;0.47;;;9.40;99.90;;;;;;21007038;28;20037;-66
2022/10/28 05:32:09;;;;;;;2.58;0.40;;;9.30;99.90;;;;;;20986053;28;20033;-67
2022/10/28 05:42:12;;;;;;;1.45;0.20;;;9.40;99.90;;;;;;20989401;28;20098;-66
2022/10/28 05:52:14;;;;;;;2.38;0.30;;;9.60;99.90;;;;;;20994445;28;20405;-67
2022/10/28 06:02:17;;;;;;;2.50;0.30;;;9.60;99.90;;;;;;21012533;28;20041;-52
2022/10/28 06:12:19;;;;;;;1.35;0.28;;;9.60;99.90;;;;;;20995582;28;20044;-52
2022/10/28 06:22:22;;;;;;;6.22;0.55;;;9.60;99.90;;;;;;21011661;28;20569;-52
2022/10/28 06:32:25;;;;;;;2.80;0.60;;;9.60;99.90;;;;;;21011427;28;20044;-54
2022/10/28 06:42:27;;;;;;;4.60;0.68;;;9.80;99.90;;;;;;21016068;28;20098;-53
2022/10/28 06:52:30;;;;;;;3.53;0.50;;;10.10;99.90;;;;;;21060010;28;20443;-67
2022/10/28 07:02:33;;;;;;;10.20;2.67;;;10.40;99.90;;;;;;21073214;28;20039;-64
2022/10/28 07:12:36;;;;;;;2.88;0.30;;;10.60;99.90;;;;;;21063423;28;20085;-62
2022/10/28 07:22:39;;;;;;;2.13;0.35;;;11.30;99.90;;;;;;21062691;28;20040;-59
2022/10/28 07:32:42;;;;;;;4.60;0.30;;;12.30;99.90;;;;;;21066378;28;20586;-53
2022/10/28 07:42:44;;;;;;;4.80;0.60;;;13.10;99.90;;;;;;21061088;28;20035;-54
2022/10/28 07:52:47;;;;;;;1.77;0.32;;;13.90;99.90;;;;;;21059027;28;20085;-54
2022/10/28 08:02:49;;;;;;;3.83;0.50;;;14.80;99.90;;;;;;21060145;28;20132;-58
2022/10/28 08:12:54;;;;;;;4.13;0.40;;;15.70;99.80;;;;;;21057467;28;20108;-58
2022/10/28 08:22:58;;;;;;;1.58;0.55;;;16.70;98.90;;;;;;21074318;28;20093;-56
2022/10/28 08:33:01;;;;;;;1.40;0.50;;;17.80;96.10;;;;;;21057175;28;20044;-58
2022/10/28 08:43:15;;;;;;;2.28;0.60;;;18.70;99.80;;;;;;21056947;28;20040;-56
2022/10/28 08:53:26;;;;;;;1.95;0.90;;;19.30;98.40;;;;;;21055319;28;20481;-59
2022/10/28 09:03:50;;;;;;;1.77;0.60;;;19.70;96.60;;;;;;21053900;28;20047;-58
2022/10/28 09:14:12;;;;;;;2.15;0.70;;;19.80;97.00;;;;;;21057852;28;20036;-56
2022/10/28 09:24:57;;;;;;;1.38;0.50;;;20.20;96.20;;;;;;21050638;28;20085;-56
2022/10/28 09:35:20;;;;;;;2.92;0.80;;;20.70;97.60;;;;;;21047966;28;20036;-56
2022/10/28 09:45:28;;;;;;;3.45;0.73;;;21.00;95.30;;;;;;21052442;28;20081;-59
2022/10/28 09:55:31;;;;;;;1.00;0.40;;;21.20;95.70;;;;;;21051561;28;20036;-59
2022/10/28 10:05:41;;;;;;;2.70;0.65;;;21.40;93.80;;;;;;21051391;28;20062;-56
2022/10/28 10:15:55;;;;;;;1.35;0.60;;;21.50;91.90;;;;;;21051261;28;20040;-55
2022/10/28 10:26:16;;;;;;;2.53;0.80;;;21.70;94.50;;;;;;21050583;28;20496;-56
2022/10/28 10:36:22;;;;;;;3.55;1.00;;;21.90;94.10;;;;;;21050079;28;20439;-60
2022/10/28 10:46:26;;;;;;;2.70;0.70;;;22.20;92.40;;;;;;21065403;28;20104;-55
2022/10/28 10:56:31;;;;;;;2.72;0.70;;;22.10;94.40;;;;;;21064444;28;20101;-55
2022/10/28 11:06:43;;;;;;;4.53;0.82;;;22.30;92.90;;;;;;21063455;28;20093;-55
2022/10/28 11:16:57;;;;;;;2.53;0.75;;;22.60;93.20;;;;;;21062150;28;20168;-61
2022/10/28 11:27:19;;;;;;;3.05;0.70;;;23.10;92.20;;;;;;21061379;28;20485;-56
2022/10/28 11:37:50;;;;;;;3.67;0.95;;;23.30;85.70;;;;;;20804698;28;20084;-56
2022/10/28 11:48:17;;;;;;;1.48;0.90;;;23.60;91.50;;;;;;20824190;28;20046;-58
2022/10/28 11:58:37;;;;;;;3.03;1.00;;;23.90;90.50;;;;;;20799539;28;20198;-61
2022/10/28 12:08:57;;;;;;;4.75;1.25;;;23.40;91.10;;;;;;20871333;28;20141;-63
2022/10/28 12:19:08;;;;;;;3.75;1.10;;;23.10;93.80;;;;;;20959016;28;20048;-57
2022/10/28 12:29:32;;;;;;;2.85;0.93;;;22.30;92.40;;;;;;20972108;28;20032;-65
2022/10/28 12:39:55;;;;;;;3.60;1.20;;;21.50;94.40;;;;;;20957161;28;20393;-57
2022/10/28 12:50:09;;;;;;;5.95;1.23;;;21.00;95.50;;;;;;21035239;28;20113;-56
2022/10/28 13:00:12;;;;;;;5.25;1.05;;;20.50;95.80;;;;;;21049763;28;20085;-56
2022/10/28 13:10:20;;;;;;;2.35;1.02;;;19.80;96.20;;;;;;21054059;28;20028;-55
2022/10/28 13:20:47;;;;;;;3.23;1.13;;;19.40;95.10;;;;;;21053249;28;20083;-55
2022/10/28 13:30:56;;;;;;;3.55;1.05;;;19.30;98.10;;;;;;21053270;28;20425;-56
2022/10/28 13:40:59;;;;;;;3.33;1.15;;;19.20;96.60;;;;;;21048193;28;20039;-67
2022/10/28 13:51:10;;;;;;;2.22;0.88;;;18.90;98.30;;;;;;21051721;28;20485;-68
2022/10/28 14:01:47;;;;;;;3.40;1.05;;;18.70;94.20;;;;;;21051841;28;20048;-55
2022/10/28 14:12:17;;;;;;;4.05;1.60;;;18.40;98.30;;;;;;21058709;28;20739;-54
2022/10/28 14:22:29;;;;;;;3.60;1.23;;;18.00;99.90;;;;;;21050508;28;20097;-54
2022/10/28 14:32:32;;;;;;;1.60;1.13;;;17.70;99.90;;;;;;21071341;28;20078;-66
2022/10/28 14:43:00;;;;;;;3.00;1.20;;;17.30;99.90;;;;;;21081642;28;20102;-53
2022/10/28 14:53:10;;;;;;;4.15;1.08;;;16.90;99.90;;;;;;21065142;28;20044;-66
2022/10/28 15:03:12;;;;;;;1.83;0.80;;;16.60;99.90;;;;;;21064594;28;20550;-57
2022/10/28 15:13:19;;;;;;;2.28;0.50;;;16.10;99.90;;;;;;21063843;28;20473;-53
2022/10/28 15:23:22;;;;;;;1.92;0.68;;;15.40;99.70;;;;;;21062262;28;20161;-52
2022/10/28 15:33:37;;;;;;;2.83;0.68;;;14.60;98.80;;;;;;21061626;28;20036;-55
2022/10/28 15:43:39;;;;;;;5.28;0.55;;;14.30;99.80;;;;;;21060416;28;20109;-65
2022/10/28 15:53:44;;;;;;;3.10;0.70;;;13.70;99.90;;;;;;21061033;28;20032;-52
2022/10/28 16:03:47;;;;;;;3.30;0.47;;;13.30;99.90;;;;;;21059661;28;20040;-53
2022/10/28 16:13:49;;;;;;;4.25;0.60;;;12.90;99.90;;;;;;21059404;28;20028;-61
2022/10/28 16:24:00;;;;;;;5.00;0.68;;;12.60;99.90;;;;;;21074772;28;20044;-64
2022/10/28 16:34:03;;;;;;;2.50;0.60;;;12.40;99.90;;;;;;21064921;28;20040;-64
2022/10/28 16:44:17;;;;;;;7.38;0.70;;;12.20;99.90;;;;;;21055121;28;20554;-53
2022/10/28 16:54:20;;;;;;;3.45;0.50;;;12.10;99.90;;;;;;21054862;28;20105;-50
2022/10/28 17:04:23;;;;;;;6.72;0.70;;;11.90;99.90;;;;;;21054241;28;20090;-61
2022/10/28 17:14:25;;;;;;;4.65;0.60;;;11.80;99.90;;;;;;21053639;28;20028;-65
2022/10/28 17:24:28;;;;;;;2.42;0.60;;;11.50;99.90;;;;;;21052759;28;20032;-65
2022/10/28 17:34:30;;;;;;;3.58;0.40;;;11.50;99.90;;;;;;21052374;28;20401;-53
2022/10/28 17:44:33;;;;;;;1.45;0.55;;;11.50;99.90;;;;;;21051788;28;20078;-53
2022/10/28 17:54:36;;;;;;;1.48;0.57;;;11.50;99.00;;;;;;21055555;28;20044;-65
2022/10/28 18:04:39;;;;;;;1.42;0.70;;;11.80;98.90;;;;;;21036235;28;20086;-53
2022/10/28 18:14:42;;;;;;;3.42;0.55;;;11.90;98.60;;;;;;21051297;28;20036;-54
2022/10/28 18:24:44;;;;;;;4.75;0.82;;;12.00;97.60;;;;;;21068520;28;20055;-57
2022/10/28 18:34:47;;;;;;;3.42;0.65;;;12.00;97.30;;;;;;21066805;28;20089;-66
2022/10/28 18:44:57;;;;;;;5.55;0.63;;;12.20;97.50;;;;;;21049302;28;20044;-55
2022/10/28 18:55:00;;;;;;;1.47;0.30;;;11.90;97.40;;;;;;21049013;28;20069;-66
2022/10/28 19:05:02;;;;;;;1.42;0.40;;;11.60;98.00;;;;;;21063400;28;20058;-66
2022/10/28 19:15:05;;;;;;;0.93;0.50;;;11.70;97.70;;;;;;21068875;28;20031;-66
2022/10/28 19:25:08;;;;;;;1.60;0.40;;;12.20;96.50;;;;;;21050465;28;20435;-66
2022/10/28 19:35:11;;;;;;;1.42;0.38;;;12.30;96.60;;;;;;21061555;28;20486;-55
2022/10/28 19:45:13;;;;;;;2.28;0.40;;;11.90;97.30;;;;;;21061018;28;20101;-55
2022/10/28 19:55:17;;;;;;;4.65;0.45;;;11.50;97.70;;;;;;21082775;28;20932;-66
2022/10/28 20:05:19;;;;;;;4.43;0.45;;;11.80;97.20;;;;;;21059419;28;20069;-66
2022/10/28 20:15:22;;;;;;;2.28;0.40;;;11.40;98.10;;;;;;21060094;28;20415;-66
2022/10/28 20:25:24;;;;;;;3.75;0.52;;;11.20;98.80;;;;;;21059856;28;20036;-66
2022/10/28 20:35:26;;;;;;;4.65;0.52;;;11.50;97.60;;;;;;21050910;28;20081;-59
2022/10/28 20:45:29;;;;;;;2.50;0.60;;;11.40;97.40;;;;;;21044891;28;20044;-58
2022/10/28 20:55:33;;;;;;;2.72;0.45;;;11.30;98.30;;;;;;21058428;28;20429;-63
2022/10/28 21:05:36;;;;;;;5.60;0.68;;;11.30;98.40;;;;;;21044451;28;20400;-57
2022/10/28 21:15:39;;;;;;;2.67;0.60;;;11.50;98.00;;;;;;21046532;28;20173;-56
2022/10/28 21:25:42;;;;;;;2.33;0.70;;;11.50;97.90;;;;;;21057187;28;20036;-57
2022/10/28 21:35:53;;;;;;;4.75;0.60;;;11.30;98.90;;;;;;21051001;28;20085;-67
2022/10/28 21:45:55;;;;;;;4.25;0.88;;;11.20;99.10;;;;;;21056608;28;20400;-58
2022/10/28 21:56:14;;;;;;;3.60;0.52;;;11.20;98.90;;;;;;21051230;28;20378;-66
2022/10/28 22:06:16;;;;;;;6.13;0.90;;;11.20;99.30;;;;;;21051100;28;20032;-69
2022/10/28 22:16:18;;;;;;;6.18;0.75;;;11.00;99.50;;;;;;21051153;28;20482;-66
2022/10/28 22:26:27;;;;;;;3.45;0.90;;;11.00;99.90;;;;;;21050612;28;20443;-56
2022/10/28 22:36:30;;;;;;;5.07;1.00;;;11.00;99.60;;;;;;21078738;28;20035;-57
2022/10/28 22:46:35;;;;;;;2.78;0.85;;;11.00;99.70;;;;;;21066317;28;20048;-67
2022/10/28 22:56:39;;;;;;;3.10;0.85;;;10.90;99.70;;;;;;21065666;28;20036;-58
2022/10/28 23:06:42;;;;;;;3.00;0.55;;;10.80;99.80;;;;;;21068542;28;20689;-68
2022/10/28 23:16:46;;;;;;;5.30;0.77;;;11.50;98.50;;;;;;21064285;28;20032;-67
2022/10/28 23:26:49;;;;;;;4.28;0.63;;;11.30;99.20;;;;;;21062539;28;20036;-58
2022/10/28 23:36:53;;;;;;;6.32;0.90;;;10.90;99.50;;;;;;21061990;28;20085;-56
2022/10/28 23:46:55;;;;;;;2.97;0.75;;;10.90;99.70;;;;;;21061409;28;20110;-67
2022/10/28 23:56:58;;;;;;;4.43;0.70;;;11.00;99.60;;;;;;21060088;28;20040;-59
